sensor_id;sensor_type;location;lat;lon;timestamp;temperature;humidity
24676;DHT22;12799;53.690;10.114;2022-07-29T00:01:43;13.70;99.90
24676;DHT22;12799;53.690;10.114;2022-07-29T00:03:45;13.70;99.90
24676;DHT22;12799;53.690;10.114;2022-07-29T00:05:47;13.60;99.90
24676;DHT22;12799;53.690;10.114;2022-07-29T00:07:50;13.60;99.90
24676;DHT22;12799;53.690;10.114;2022-07-29T00:09:52;13.60;99.90
24676;DHT22;12799;53.690;10.114;2022-07-29T00:11:58;13.60;99.90
24676;DHT22;12799;53.690;10.114;2022-07-29T00:14:00;13.50;99.90
24676;DHT22;12799;53.690;10.114;2022-07-29T00:16:02;13.50;99.90
24676;DHT22;12799;53.690;10.114;2022-07-29T00:18:04;13.50;99.90
24676;DHT22;12799;53.690;10.114;2022-07-29T00:20:08;13.50;99.90
24676;DHT22;12799;53.690;10.114;2022-07-29T00:22:10;13.40;99.90
24676;DHT22;12799;53.690;10.114;2022-07-29T00:24:13;13.40;99.90
24676;DHT22;12799;53.690;10.114;2022-07-29T00:26:15;13.40;99.90
24676;DHT22;12799;53.690;10.114;2022-07-29T00:28:17;13.40;99.90
24676;DHT22;12799;53.690;10.114;2022-07-29T00:30:19;13.40;99.90
24676;DHT22;12799;53.690;10.114;2022-07-29T00:32:21;13.30;99.90
24676;DHT22;12799;53.690;10.114;2022-07-29T00:34:23;13.30;99.90
24676;DHT22;12799;53.690;10.114;2022-07-29T00:36:42;13.30;99.90
24676;DHT22;12799;53.690;10.114;2022-07-29T00:38:44;13.30;99.90
24676;DHT22;12799;53.690;10.114;2022-07-29T00:40:48;13.20;99.90
24676;DHT22;12799;53.690;10.114;2022-07-29T00:42:51;13.20;99.90
24676;DHT22;12799;53.690;10.114;2022-07-29T00:44:53;13.20;99.90
24676;DHT22;12799;53.690;10.114;2022-07-29T00:46:55;13.10;99.90
24676;DHT22;12799;53.690;10.114;2022-07-29T00:48:57;13.10;99.90
24676;DHT22;12799;53.690;10.114;2022-07-29T00:51:01;13.10;99.90
24676;DHT22;12799;53.690;10.114;2022-07-29T00:53:03;13.10;99.90
24676;DHT22;12799;53.690;10.114;2022-07-29T00:55:08;13.00;99.90
24676;DHT22;12799;53.690;10.114;2022-07-29T00:57:12;13.00;99.90
24676;DHT22;12799;53.690;10.114;2022-07-29T00:59:14;13.00;99.90
24676;DHT22;12799;53.690;10.114;2022-07-29T01:01:16;12.90;99.90
24676;DHT22;12799;53.690;10.114;2022-07-29T01:03:19;12.90;99.90
24676;DHT22;12799;53.690;10.114;2022-07-29T01:05:23;12.90;99.90
24676;DHT22;12799;53.690;10.114;2022-07-29T01:07:26;12.90;99.90
24676;DHT22;12799;53.690;10.114;2022-07-29T01:09:29;12.80;99.90
24676;DHT22;12799;53.690;10.114;2022-07-29T01:11:33;12.80;99.90
24676;DHT22;12799;53.690;10.114;2022-07-29T01:13:37;12.80;99.90
24676;DHT22;12799;53.690;10.114;2022-07-29T01:15:44;12.70;99.90
24676;DHT22;12799;53.690;10.114;2022-07-29T01:17:52;12.70;99.90
24676;DHT22;12799;53.690;10.114;2022-07-29T01:20:00;12.70;99.90
24676;DHT22;12799;53.690;10.114;2022-07-29T01:22:18;12.70;99.90
24676;DHT22;12799;53.690;10.114;2022-07-29T01:24:49;12.70;99.90
24676;DHT22;12799;53.690;10.114;2022-07-29T01:27:04;12.70;99.90
24676;DHT22;12799;53.690;10.114;2022-07-29T01:29:18;12.60;99.90
24676;DHT22;12799;53.690;10.114;2022-07-29T01:31:30;12.60;99.90
24676;DHT22;12799;53.690;10.114;2022-07-29T01:33:41;12.60;99.90
24676;DHT22;12799;53.690;10.114;2022-07-29T01:35:51;12.60;99.90
24676;DHT22;12799;53.690;10.114;2022-07-29T01:37:59;12.60;99.90
24676;DHT22;12799;53.690;10.114;2022-07-29T01:40:05;12.50;99.90
24676;DHT22;12799;53.690;10.114;2022-07-29T01:42:14;12.60;99.90
24676;DHT22;12799;53.690;10.114;2022-07-29T01:44:22;12.50;99.90
24676;DHT22;12799;53.690;10.114;2022-07-29T01:46:28;12.50;99.90
24676;DHT22;12799;53.690;10.114;2022-07-29T01:48:37;12.50;99.90
24676;DHT22;12799;53.690;10.114;2022-07-29T01:50:47;12.40;99.90
24676;DHT22;12799;53.690;10.114;2022-07-29T01:52:54;12.40;99.90
24676;DHT22;12799;53.690;10.114;2022-07-29T01:54:59;12.40;99.90
24676;DHT22;12799;53.690;10.114;2022-07-29T01:57:07;12.40;99.90
24676;DHT22;12799;53.690;10.114;2022-07-29T01:59:10;12.40;99.90
24676;DHT22;12799;53.690;10.114;2022-07-29T02:01:14;12.40;99.90
24676;DHT22;12799;53.690;10.114;2022-07-29T02:03:18;12.40;99.90
24676;DHT22;12799;53.690;10.114;2022-07-29T02:05:21;12.30;99.90
24676;DHT22;12799;53.690;10.114;2022-07-29T02:07:25;12.30;99.90
24676;DHT22;12799;53.690;10.114;2022-07-29T02:09:30;12.30;99.90
24676;DHT22;12799;53.690;10.114;2022-07-29T02:11:34;12.30;99.90
24676;DHT22;12799;53.690;10.114;2022-07-29T02:13:37;12.30;99.90
24676;DHT22;12799;53.690;10.114;2022-07-29T02:15:42;12.20;99.90
24676;DHT22;12799;53.690;10.114;2022-07-29T02:17:50;12.20;99.90
24676;DHT22;12799;53.690;10.114;2022-07-29T02:19:57;12.20;99.90
24676;DHT22;12799;53.690;10.114;2022-07-29T02:22:00;12.20;99.90
24676;DHT22;12799;53.690;10.114;2022-07-29T02:24:04;12.20;99.90
24676;DHT22;12799;53.690;10.114;2022-07-29T02:26:07;12.20;99.90
24676;DHT22;12799;53.690;10.114;2022-07-29T02:28:10;12.20;99.90
24676;DHT22;12799;53.690;10.114;2022-07-29T02:30:13;12.10;99.90
24676;DHT22;12799;53.690;10.114;2022-07-29T02:32:16;12.10;99.90
24676;DHT22;12799;53.690;10.114;2022-07-29T02:34:20;12.10;99.90
24676;DHT22;12799;53.690;10.114;2022-07-29T02:36:23;12.10;99.90
24676;DHT22;12799;53.690;10.114;2022-07-29T02:38:27;12.10;99.90
24676;DHT22;12799;53.690;10.114;2022-07-29T02:40:48;12.10;99.90
24676;DHT22;12799;53.690;10.114;2022-07-29T02:42:52;12.10;99.90
24676;DHT22;12799;53.690;10.114;2022-07-29T02:44:54;12.10;99.90
24676;DHT22;12799;53.690;10.114;2022-07-29T02:47:02;12.10;99.90
24676;DHT22;12799;53.690;10.114;2022-07-29T02:49:10;12.00;99.90
24676;DHT22;12799;53.690;10.114;2022-07-29T02:51:19;12.10;99.90
24676;DHT22;12799;53.690;10.114;2022-07-29T02:53:25;12.00;99.90
24676;DHT22;12799;53.690;10.114;2022-07-29T02:55:31;12.00;99.90
24676;DHT22;12799;53.690;10.114;2022-07-29T02:57:39;12.00;99.90
24676;DHT22;12799;53.690;10.114;2022-07-29T02:59:45;12.00;99.90
24676;DHT22;12799;53.690;10.114;2022-07-29T03:01:49;12.00;99.90
24676;DHT22;12799;53.690;10.114;2022-07-29T03:03:53;12.00;99.90
24676;DHT22;12799;53.690;10.114;2022-07-29T03:05:57;12.00;99.90
24676;DHT22;12799;53.690;10.114;2022-07-29T03:08:02;12.00;99.90
24676;DHT22;12799;53.690;10.114;2022-07-29T03:10:07;12.00;99.90
24676;DHT22;12799;53.690;10.114;2022-07-29T03:12:09;12.00;99.90
24676;DHT22;12799;53.690;10.114;2022-07-29T03:14:12;12.00;99.90
24676;DHT22;12799;53.690;10.114;2022-07-29T03:16:15;12.00;99.90
24676;DHT22;12799;53.690;10.114;2022-07-29T03:18:17;12.00;99.90
24676;DHT22;12799;53.690;10.114;2022-07-29T03:20:20;11.90;99.90
24676;DHT22;12799;53.690;10.114;2022-07-29T03:22:22;11.90;99.90
24676;DHT22;12799;53.690;10.114;2022-07-29T03:24:26;11.90;99.90
24676;DHT22;12799;53.690;10.114;2022-07-29T03:26:29;12.00;99.90
24676;DHT22;12799;53.690;10.114;2022-07-29T03:28:31;12.00;99.90
24676;DHT22;12799;53.690;10.114;2022-07-29T03:30:33;12.00;99.90
24676;DHT22;12799;53.690;10.114;2022-07-29T03:32:35;12.00;99.90
24676;DHT22;12799;53.690;10.114;2022-07-29T03:34:37;12.00;99.90
24676;DHT22;12799;53.690;10.114;2022-07-29T03:36:39;12.00;99.90
24676;DHT22;12799;53.690;10.114;2022-07-29T03:38:41;12.00;99.90
24676;DHT22;12799;53.690;10.114;2022-07-29T03:40:49;12.00;99.90
24676;DHT22;12799;53.690;10.114;2022-07-29T03:42:54;12.00;99.90
24676;DHT22;12799;53.690;10.114;2022-07-29T03:44:57;12.00;99.90
24676;DHT22;12799;53.690;10.114;2022-07-29T03:47:02;12.00;99.90
24676;DHT22;12799;53.690;10.114;2022-07-29T03:49:06;12.00;99.90
24676;DHT22;12799;53.690;10.114;2022-07-29T03:51:10;12.00;99.90
24676;DHT22;12799;53.690;10.114;2022-07-29T03:53:12;12.10;99.90
24676;DHT22;12799;53.690;10.114;2022-07-29T03:55:15;12.00;99.90
24676;DHT22;12799;53.690;10.114;2022-07-29T03:57:21;12.10;99.90
24676;DHT22;12799;53.690;10.114;2022-07-29T03:59:26;12.10;99.90
24676;DHT22;12799;53.690;10.114;2022-07-29T04:01:29;12.10;99.90
24676;DHT22;12799;53.690;10.114;2022-07-29T04:03:31;12.10;99.90
24676;DHT22;12799;53.690;10.114;2022-07-29T04:05:33;12.20;99.90
24676;DHT22;12799;53.690;10.114;2022-07-29T04:07:35;12.20;99.90
24676;DHT22;12799;53.690;10.114;2022-07-29T04:09:37;12.20;99.90
24676;DHT22;12799;53.690;10.114;2022-07-29T04:11:40;12.20;99.90
24676;DHT22;12799;53.690;10.114;2022-07-29T04:13:44;12.30;99.90
24676;DHT22;12799;53.690;10.114;2022-07-29T04:15:46;12.20;99.90
24676;DHT22;12799;53.690;10.114;2022-07-29T04:17:47;12.30;99.90
24676;DHT22;12799;53.690;10.114;2022-07-29T04:19:49;12.30;99.90
24676;DHT22;12799;53.690;10.114;2022-07-29T04:21:51;12.30;99.90
24676;DHT22;12799;53.690;10.114;2022-07-29T04:23:53;12.30;99.90
24676;DHT22;12799;53.690;10.114;2022-07-29T04:25:55;12.30;99.90
24676;DHT22;12799;53.690;10.114;2022-07-29T04:27:57;12.30;99.90
24676;DHT22;12799;53.690;10.114;2022-07-29T04:30:04;12.30;99.90
24676;DHT22;12799;53.690;10.114;2022-07-29T04:32:07;12.40;99.90
24676;DHT22;12799;53.690;10.114;2022-07-29T04:34:09;12.40;99.90
24676;DHT22;12799;53.690;10.114;2022-07-29T04:36:11;12.40;99.90
24676;DHT22;12799;53.690;10.114;2022-07-29T04:38:13;12.40;99.90
24676;DHT22;12799;53.690;10.114;2022-07-29T04:40:15;12.40;99.90
24676;DHT22;12799;53.690;10.114;2022-07-29T04:42:17;12.40;99.90
24676;DHT22;12799;53.690;10.114;2022-07-29T04:44:19;12.40;99.90
24676;DHT22;12799;53.690;10.114;2022-07-29T04:46:22;12.40;99.90
24676;DHT22;12799;53.690;10.114;2022-07-29T04:48:24;12.50;99.90
24676;DHT22;12799;53.690;10.114;2022-07-29T04:50:26;12.50;99.90
24676;DHT22;12799;53.690;10.114;2022-07-29T04:52:28;12.50;99.90
24676;DHT22;12799;53.690;10.114;2022-07-29T04:54:30;12.50;99.90
24676;DHT22;12799;53.690;10.114;2022-07-29T04:56:32;12.60;99.90
24676;DHT22;12799;53.690;10.114;2022-07-29T04:58:34;12.60;99.90
24676;DHT22;12799;53.690;10.114;2022-07-29T05:00:37;12.60;99.90
24676;DHT22;12799;53.690;10.114;2022-07-29T05:02:40;12.60;99.90
24676;DHT22;12799;53.690;10.114;2022-07-29T05:04:42;12.70;99.90
24676;DHT22;12799;53.690;10.114;2022-07-29T05:06:44;12.70;99.90
24676;DHT22;12799;53.690;10.114;2022-07-29T05:08:46;12.70;99.90
24676;DHT22;12799;53.690;10.114;2022-07-29T05:10:48;12.70;99.90
24676;DHT22;12799;53.690;10.114;2022-07-29T05:12:50;12.80;99.90
24676;DHT22;12799;53.690;10.114;2022-07-29T05:14:52;12.80;99.90
24676;DHT22;12799;53.690;10.114;2022-07-29T05:16:55;12.80;99.90
24676;DHT22;12799;53.690;10.114;2022-07-29T05:18:59;12.90;99.90
24676;DHT22;12799;53.690;10.114;2022-07-29T05:21:00;12.90;99.90
24676;DHT22;12799;53.690;10.114;2022-07-29T05:23:03;12.90;99.90
24676;DHT22;12799;53.690;10.114;2022-07-29T05:25:05;13.00;99.90
24676;DHT22;12799;53.690;10.114;2022-07-29T05:27:09;13.00;99.90
24676;DHT22;12799;53.690;10.114;2022-07-29T05:29:11;13.10;99.90
24676;DHT22;12799;53.690;10.114;2022-07-29T05:31:13;13.10;99.90
24676;DHT22;12799;53.690;10.114;2022-07-29T05:33:16;13.20;99.90
24676;DHT22;12799;53.690;10.114;2022-07-29T05:35:19;13.20;99.90
24676;DHT22;12799;53.690;10.114;2022-07-29T05:37:21;13.30;99.90
24676;DHT22;12799;53.690;10.114;2022-07-29T05:39:23;13.30;99.90
24676;DHT22;12799;53.690;10.114;2022-07-29T05:41:25;13.40;99.90
24676;DHT22;12799;53.690;10.114;2022-07-29T05:43:28;13.40;99.90
24676;DHT22;12799;53.690;10.114;2022-07-29T05:45:30;13.50;99.90
24676;DHT22;12799;53.690;10.114;2022-07-29T05:47:32;13.50;99.90
24676;DHT22;12799;53.690;10.114;2022-07-29T05:49:34;13.50;99.90
24676;DHT22;12799;53.690;10.114;2022-07-29T05:51:37;13.60;99.90
24676;DHT22;12799;53.690;10.114;2022-07-29T05:53:39;13.60;99.90
24676;DHT22;12799;53.690;10.114;2022-07-29T05:55:41;13.70;99.90
24676;DHT22;12799;53.690;10.114;2022-07-29T05:57:43;13.70;99.90
24676;DHT22;12799;53.690;10.114;2022-07-29T05:59:46;13.80;99.90
24676;DHT22;12799;53.690;10.114;2022-07-29T06:01:48;13.90;99.90
24676;DHT22;12799;53.690;10.114;2022-07-29T06:03:50;14.00;99.90
24676;DHT22;12799;53.690;10.114;2022-07-29T06:05:52;14.00;99.90
24676;DHT22;12799;53.690;10.114;2022-07-29T06:07:55;14.00;99.90
24676;DHT22;12799;53.690;10.114;2022-07-29T06:09:57;14.10;99.90
24676;DHT22;12799;53.690;10.114;2022-07-29T06:11:59;14.10;99.90
24676;DHT22;12799;53.690;10.114;2022-07-29T06:14:01;14.20;99.90
24676;DHT22;12799;53.690;10.114;2022-07-29T06:16:04;14.20;99.90
24676;DHT22;12799;53.690;10.114;2022-07-29T06:18:06;14.30;99.90
24676;DHT22;12799;53.690;10.114;2022-07-29T06:20:10;14.40;99.90
24676;DHT22;12799;53.690;10.114;2022-07-29T06:22:15;14.40;99.90
24676;DHT22;12799;53.690;10.114;2022-07-29T06:24:18;14.50;99.90
24676;DHT22;12799;53.690;10.114;2022-07-29T06:26:20;14.50;99.90
24676;DHT22;12799;53.690;10.114;2022-07-29T06:28:22;14.60;99.90
24676;DHT22;12799;53.690;10.114;2022-07-29T06:30:24;14.70;99.90
24676;DHT22;12799;53.690;10.114;2022-07-29T06:32:26;14.80;99.90
24676;DHT22;12799;53.690;10.114;2022-07-29T06:34:28;14.90;99.90
24676;DHT22;12799;53.690;10.114;2022-07-29T06:36:30;14.90;99.90
24676;DHT22;12799;53.690;10.114;2022-07-29T06:38:32;15.00;99.90
24676;DHT22;12799;53.690;10.114;2022-07-29T06:40:35;15.10;99.90
24676;DHT22;12799;53.690;10.114;2022-07-29T06:42:55;15.20;99.90
24676;DHT22;12799;53.690;10.114;2022-07-29T06:44:57;15.30;99.90
24676;DHT22;12799;53.690;10.114;2022-07-29T06:47:00;15.40;99.90
24676;DHT22;12799;53.690;10.114;2022-07-29T06:49:02;15.40;99.90
24676;DHT22;12799;53.690;10.114;2022-07-29T06:51:05;15.50;99.90
24676;DHT22;12799;53.690;10.114;2022-07-29T06:53:07;15.70;99.90
24676;DHT22;12799;53.690;10.114;2022-07-29T06:55:12;15.80;99.90
24676;DHT22;12799;53.690;10.114;2022-07-29T06:57:16;15.90;99.90
24676;DHT22;12799;53.690;10.114;2022-07-29T06:59:18;15.90;99.90
24676;DHT22;12799;53.690;10.114;2022-07-29T07:01:20;16.00;99.90
24676;DHT22;12799;53.690;10.114;2022-07-29T07:03:22;16.10;99.90
24676;DHT22;12799;53.690;10.114;2022-07-29T07:05:24;16.20;99.90
24676;DHT22;12799;53.690;10.114;2022-07-29T07:07:26;16.30;99.90
24676;DHT22;12799;53.690;10.114;2022-07-29T07:09:28;16.40;99.90
24676;DHT22;12799;53.690;10.114;2022-07-29T07:11:30;16.50;99.90
24676;DHT22;12799;53.690;10.114;2022-07-29T07:13:33;16.60;99.90
24676;DHT22;12799;53.690;10.114;2022-07-29T07:22:11;17.30;99.90
24676;DHT22;12799;53.690;10.114;2022-07-29T07:24:28;17.60;99.90
24676;DHT22;12799;53.690;10.114;2022-07-29T07:28:42;17.90;99.90
24676;DHT22;12799;53.690;10.114;2022-07-29T07:30:44;18.10;99.90
24676;DHT22;12799;53.690;10.114;2022-07-29T07:32:46;18.20;99.90
24676;DHT22;12799;53.690;10.114;2022-07-29T07:34:48;18.40;99.90
24676;DHT22;12799;53.690;10.114;2022-07-29T07:36:50;18.40;99.90
24676;DHT22;12799;53.690;10.114;2022-07-29T07:38:52;18.60;99.90
24676;DHT22;12799;53.690;10.114;2022-07-29T07:40:55;18.70;99.90
24676;DHT22;12799;53.690;10.114;2022-07-29T07:42:57;18.80;99.90
24676;DHT22;12799;53.690;10.114;2022-07-29T07:45:00;18.90;99.90
24676;DHT22;12799;53.690;10.114;2022-07-29T07:47:02;19.00;99.90
24676;DHT22;12799;53.690;10.114;2022-07-29T07:49:04;19.10;99.90
24676;DHT22;12799;53.690;10.114;2022-07-29T07:51:06;19.10;99.90
24676;DHT22;12799;53.690;10.114;2022-07-29T07:53:09;19.20;99.90
24676;DHT22;12799;53.690;10.114;2022-07-29T07:55:11;19.30;99.90
24676;DHT22;12799;53.690;10.114;2022-07-29T07:57:13;19.20;99.90
24676;DHT22;12799;53.690;10.114;2022-07-29T07:59:25;19.30;99.90
24676;DHT22;12799;53.690;10.114;2022-07-29T08:01:29;19.40;99.90
24676;DHT22;12799;53.690;10.114;2022-07-29T08:03:31;19.40;99.90
24676;DHT22;12799;53.690;10.114;2022-07-29T08:07:36;19.50;99.90
24676;DHT22;12799;53.690;10.114;2022-07-29T08:09:38;19.60;99.90
24676;DHT22;12799;53.690;10.114;2022-07-29T08:11:40;19.70;99.90
24676;DHT22;12799;53.690;10.114;2022-07-29T08:13:47;19.70;99.90
24676;DHT22;12799;53.690;10.114;2022-07-29T08:15:53;19.80;99.90
24676;DHT22;12799;53.690;10.114;2022-07-29T08:18:11;19.80;99.90
24676;DHT22;12799;53.690;10.114;2022-07-29T08:20:13;19.90;99.90
24676;DHT22;12799;53.690;10.114;2022-07-29T08:22:16;19.90;99.90
24676;DHT22;12799;53.690;10.114;2022-07-29T08:24:18;20.00;99.90
24676;DHT22;12799;53.690;10.114;2022-07-29T08:26:37;20.10;99.90
24676;DHT22;12799;53.690;10.114;2022-07-29T08:28:41;20.10;99.90
24676;DHT22;12799;53.690;10.114;2022-07-29T08:30:45;20.30;99.90
24676;DHT22;12799;53.690;10.114;2022-07-29T08:32:48;20.30;99.90
24676;DHT22;12799;53.690;10.114;2022-07-29T08:34:56;20.30;99.90
24676;DHT22;12799;53.690;10.114;2022-07-29T08:37:04;20.40;99.90
24676;DHT22;12799;53.690;10.114;2022-07-29T08:39:07;20.50;99.90
24676;DHT22;12799;53.690;10.114;2022-07-29T08:41:09;20.60;99.90
24676;DHT22;12799;53.690;10.114;2022-07-29T08:43:11;20.60;99.90
24676;DHT22;12799;53.690;10.114;2022-07-29T08:45:15;20.80;99.90
24676;DHT22;12799;53.690;10.114;2022-07-29T08:47:17;20.90;99.90
24676;DHT22;12799;53.690;10.114;2022-07-29T08:49:20;21.00;99.90
24676;DHT22;12799;53.690;10.114;2022-07-29T08:51:30;21.10;99.90
24676;DHT22;12799;53.690;10.114;2022-07-29T08:56:12;21.40;99.90
24676;DHT22;12799;53.690;10.114;2022-07-29T08:58:15;21.60;99.90
24676;DHT22;12799;53.690;10.114;2022-07-29T09:00:18;21.70;99.90
24676;DHT22;12799;53.690;10.114;2022-07-29T09:02:21;21.90;99.90
24676;DHT22;12799;53.690;10.114;2022-07-29T09:04:25;22.10;99.90
24676;DHT22;12799;53.690;10.114;2022-07-29T09:06:32;22.20;99.90
24676;DHT22;12799;53.690;10.114;2022-07-29T09:08:36;22.30;99.90
24676;DHT22;12799;53.690;10.114;2022-07-29T09:10:38;22.50;99.90
24676;DHT22;12799;53.690;10.114;2022-07-29T09:12:40;22.50;99.90
24676;DHT22;12799;53.690;10.114;2022-07-29T09:14:42;22.80;99.90
24676;DHT22;12799;53.690;10.114;2022-07-29T09:16:55;22.90;99.90
24676;DHT22;12799;53.690;10.114;2022-07-29T09:18:57;23.00;99.90
24676;DHT22;12799;53.690;10.114;2022-07-29T09:21:00;23.20;99.90
24676;DHT22;12799;53.690;10.114;2022-07-29T09:23:22;23.30;99.90
24676;DHT22;12799;53.690;10.114;2022-07-29T09:40:20;24.40;99.90
24676;DHT22;12799;53.690;10.114;2022-07-29T09:42:35;24.50;99.90
24676;DHT22;12799;53.690;10.114;2022-07-29T09:45:34;24.50;99.90
24676;DHT22;12799;53.690;10.114;2022-07-29T09:48:28;24.70;99.90
24676;DHT22;12799;53.690;10.114;2022-07-29T09:51:17;25.10;99.90
24676;DHT22;12799;53.690;10.114;2022-07-29T09:59:38;25.90;99.90
24676;DHT22;12799;53.690;10.114;2022-07-29T10:01:44;26.00;99.90
24676;DHT22;12799;53.690;10.114;2022-07-29T10:04:00;26.00;99.90
24676;DHT22;12799;53.690;10.114;2022-07-29T10:06:07;26.20;99.90
24676;DHT22;12799;53.690;10.114;2022-07-29T10:08:10;26.20;99.90
24676;DHT22;12799;53.690;10.114;2022-07-29T10:10:19;26.40;99.90
24676;DHT22;12799;53.690;10.114;2022-07-29T10:12:22;26.60;99.90
24676;DHT22;12799;53.690;10.114;2022-07-29T10:14:24;26.70;99.90
24676;DHT22;12799;53.690;10.114;2022-07-29T10:16:29;26.70;99.90
24676;DHT22;12799;53.690;10.114;2022-07-29T10:18:34;26.80;99.90
24676;DHT22;12799;53.690;10.114;2022-07-29T10:20:39;26.80;99.90
24676;DHT22;12799;53.690;10.114;2022-07-29T10:22:42;26.90;99.90
24676;DHT22;12799;53.690;10.114;2022-07-29T10:24:47;27.20;99.90
24676;DHT22;12799;53.690;10.114;2022-07-29T10:26:59;27.00;99.90
24676;DHT22;12799;53.690;10.114;2022-07-29T10:29:02;27.40;99.90
24676;DHT22;12799;53.690;10.114;2022-07-29T10:31:06;27.60;99.90
24676;DHT22;12799;53.690;10.114;2022-07-29T10:33:31;27.80;99.90
24676;DHT22;12799;53.690;10.114;2022-07-29T10:38:45;28.00;99.90
24676;DHT22;12799;53.690;10.114;2022-07-29T10:40:57;27.90;99.90
24676;DHT22;12799;53.690;10.114;2022-07-29T10:46:16;27.80;99.90
24676;DHT22;12799;53.690;10.114;2022-07-29T10:48:20;28.00;99.90
24676;DHT22;12799;53.690;10.114;2022-07-29T10:50:22;27.80;99.90
24676;DHT22;12799;53.690;10.114;2022-07-29T10:52:52;27.80;99.90
24676;DHT22;12799;53.690;10.114;2022-07-29T10:54:54;27.70;99.90
24676;DHT22;12799;53.690;10.114;2022-07-29T10:57:11;27.70;99.90
24676;DHT22;12799;53.690;10.114;2022-07-29T10:59:26;27.80;99.90
24676;DHT22;12799;53.690;10.114;2022-07-29T11:01:30;27.70;99.90
24676;DHT22;12799;53.690;10.114;2022-07-29T11:03:51;27.60;99.90
24676;DHT22;12799;53.690;10.114;2022-07-29T11:05:56;27.60;99.90
24676;DHT22;12799;53.690;10.114;2022-07-29T11:08:24;27.40;99.90
24676;DHT22;12799;53.690;10.114;2022-07-29T11:10:26;27.40;99.90
24676;DHT22;12799;53.690;10.114;2022-07-29T11:12:45;27.40;99.90
24676;DHT22;12799;53.690;10.114;2022-07-29T11:14:59;27.20;99.90
24676;DHT22;12799;53.690;10.114;2022-07-29T11:17:04;27.20;99.90
24676;DHT22;12799;53.690;10.114;2022-07-29T11:19:24;27.30;99.90
24676;DHT22;12799;53.690;10.114;2022-07-29T11:21:36;27.10;99.90
24676;DHT22;12799;53.690;10.114;2022-07-29T11:23:39;27.20;99.90
24676;DHT22;12799;53.690;10.114;2022-07-29T11:25:42;27.10;99.90
24676;DHT22;12799;53.690;10.114;2022-07-29T11:27:45;27.00;99.90
24676;DHT22;12799;53.690;10.114;2022-07-29T11:29:55;27.10;99.90
24676;DHT22;12799;53.690;10.114;2022-07-29T11:32:08;27.00;99.90
24676;DHT22;12799;53.690;10.114;2022-07-29T11:34:24;27.10;99.90
24676;DHT22;12799;53.690;10.114;2022-07-29T11:36:26;26.90;99.90
24676;DHT22;12799;53.690;10.114;2022-07-29T11:38:28;26.70;99.90
24676;DHT22;12799;53.690;10.114;2022-07-29T11:40:30;26.70;99.90
24676;DHT22;12799;53.690;10.114;2022-07-29T11:42:46;26.80;99.90
24676;DHT22;12799;53.690;10.114;2022-07-29T11:44:54;26.60;99.90
24676;DHT22;12799;53.690;10.114;2022-07-29T11:46:57;26.60;99.90
24676;DHT22;12799;53.690;10.114;2022-07-29T11:48:59;26.80;99.90
24676;DHT22;12799;53.690;10.114;2022-07-29T11:51:09;26.80;99.90
24676;DHT22;12799;53.690;10.114;2022-07-29T11:53:12;26.90;99.90
24676;DHT22;12799;53.690;10.114;2022-07-29T11:57:32;27.00;99.90
24676;DHT22;12799;53.690;10.114;2022-07-29T11:59:39;27.10;99.90
24676;DHT22;12799;53.690;10.114;2022-07-29T12:01:52;27.10;99.90
24676;DHT22;12799;53.690;10.114;2022-07-29T12:04:03;27.10;99.90
24676;DHT22;12799;53.690;10.114;2022-07-29T12:06:13;27.20;99.90
24676;DHT22;12799;53.690;10.114;2022-07-29T12:08:17;27.50;99.90
24676;DHT22;12799;53.690;10.114;2022-07-29T12:10:20;27.60;99.90
24676;DHT22;12799;53.690;10.114;2022-07-29T12:12:22;27.80;99.90
24676;DHT22;12799;53.690;10.114;2022-07-29T12:14:26;28.00;99.90
24676;DHT22;12799;53.690;10.114;2022-07-29T12:29:41;28.00;99.90
24676;DHT22;12799;53.690;10.114;2022-07-29T12:31:43;28.00;99.90
24676;DHT22;12799;53.690;10.114;2022-07-29T12:33:52;28.00;99.90
24676;DHT22;12799;53.690;10.114;2022-07-29T12:38:51;28.10;99.90
24676;DHT22;12799;53.690;10.114;2022-07-29T12:40:54;28.30;99.90
24676;DHT22;12799;53.690;10.114;2022-07-29T12:43:06;28.10;99.90
24676;DHT22;12799;53.690;10.114;2022-07-29T12:45:11;28.20;99.90
24676;DHT22;12799;53.690;10.114;2022-07-29T12:47:13;28.20;99.90
24676;DHT22;12799;53.690;10.114;2022-07-29T12:49:21;28.30;99.90
24676;DHT22;12799;53.690;10.114;2022-07-29T12:51:29;28.20;99.90
24676;DHT22;12799;53.690;10.114;2022-07-29T12:53:32;28.30;99.90
24676;DHT22;12799;53.690;10.114;2022-07-29T12:55:45;28.40;99.90
24676;DHT22;12799;53.690;10.114;2022-07-29T12:57:50;28.60;99.90
24676;DHT22;12799;53.690;10.114;2022-07-29T13:00:02;28.70;99.90
24676;DHT22;12799;53.690;10.114;2022-07-29T13:02:06;28.70;99.90
24676;DHT22;12799;53.690;10.114;2022-07-29T13:04:09;28.70;99.90
24676;DHT22;12799;53.690;10.114;2022-07-29T13:06:33;29.00;99.90
24676;DHT22;12799;53.690;10.114;2022-07-29T13:08:35;29.00;99.90
24676;DHT22;12799;53.690;10.114;2022-07-29T13:10:37;29.10;99.90
24676;DHT22;12799;53.690;10.114;2022-07-29T13:13:01;29.30;99.90
24676;DHT22;12799;53.690;10.114;2022-07-29T13:15:13;29.50;99.90
24676;DHT22;12799;53.690;10.114;2022-07-29T13:17:18;29.50;99.90
24676;DHT22;12799;53.690;10.114;2022-07-29T13:19:33;29.50;99.90
24676;DHT22;12799;53.690;10.114;2022-07-29T13:21:35;29.60;99.90
24676;DHT22;12799;53.690;10.114;2022-07-29T13:23:38;29.60;99.90
24676;DHT22;12799;53.690;10.114;2022-07-29T13:25:40;29.60;99.90
24676;DHT22;12799;53.690;10.114;2022-07-29T13:27:42;29.70;99.90
24676;DHT22;12799;53.690;10.114;2022-07-29T13:29:46;29.80;99.90
24676;DHT22;12799;53.690;10.114;2022-07-29T13:31:49;29.80;99.90
24676;DHT22;12799;53.690;10.114;2022-07-29T13:33:52;29.70;99.90
24676;DHT22;12799;53.690;10.114;2022-07-29T13:35:54;29.70;99.90
24676;DHT22;12799;53.690;10.114;2022-07-29T13:37:56;29.80;99.90
24676;DHT22;12799;53.690;10.114;2022-07-29T13:39:58;29.70;99.90
24676;DHT22;12799;53.690;10.114;2022-07-29T13:42:00;29.80;99.90
24676;DHT22;12799;53.690;10.114;2022-07-29T13:44:02;29.90;99.90
24676;DHT22;12799;53.690;10.114;2022-07-29T13:46:04;30.00;99.90
24676;DHT22;12799;53.690;10.114;2022-07-29T13:48:07;30.10;99.90
24676;DHT22;12799;53.690;10.114;2022-07-29T13:50:10;30.00;99.90
24676;DHT22;12799;53.690;10.114;2022-07-29T13:52:12;29.90;99.90
24676;DHT22;12799;53.690;10.114;2022-07-29T13:54:14;29.90;99.90
24676;DHT22;12799;53.690;10.114;2022-07-29T13:56:16;30.00;99.90
24676;DHT22;12799;53.690;10.114;2022-07-29T13:58:18;30.10;99.90